Time;durP1;ratioP1;P1;durP2;ratioP2;P2;SDS_P1;SDS_P2;PMS_P1;PMS_P2;Temp;Humidity;BMP_temperature;BMP_pressure;BME280_temperature;BME280_humidity;BME280_pressure;Samples;Min_cycle;Max_cycle;Signal;HPM_P1;HPM_P2
2021/07/09 00:02:17;;;;;;;5.47;2.50;;;15.10;99.90;;;14.82;90.58;102073.16;4184046;28;20107;-74
2021/07/09 00:04:18;;;;;;;3.00;2.00;;;15.20;99.90;;;14.88;90.44;102080.53;4200562;28;20511;-74
2021/07/09 00:06:21;;;;;;;2.80;2.13;;;15.20;99.90;;;14.84;91.12;102073.88;4183783;28;20029;-74
2021/07/09 00:08:22;;;;;;;4.43;2.17;;;15.10;99.90;;;14.85;90.37;102071.06;4201983;28;20435;-73
2021/07/09 00:10:23;;;;;;;3.55;2.10;;;15.10;99.90;;;14.84;90.44;102071.22;4201888;28;20047;-74
2021/07/09 00:12:24;;;;;;;3.92;2.10;;;15.10;99.90;;;14.73;91.60;102076.72;4202097;28;20025;-74
2021/07/09 00:14:31;;;;;;;3.03;2.10;;;15.10;99.90;;;14.78;90.51;102069.97;4167411;28;20069;-73
2021/07/09 00:16:32;;;;;;;3.47;1.80;;;15.10;99.90;;;14.75;90.98;102061.50;4184196;28;20510;-74
2021/07/09 00:18:33;;;;;;;3.95;2.80;;;15.10;99.90;;;14.83;90.66;102070.38;4184055;28;20442;-74
2021/07/09 00:20:34;;;;;;;2.85;2.05;;;15.10;99.90;;;14.80;91.10;102078.66;4201627;28;20025;-74
2021/07/09 00:22:37;;;;;;;7.78;2.95;;;15.00;99.90;;;14.75;91.26;102072.97;4183562;28;20104;-74
2021/07/09 00:24:38;;;;;;;3.88;1.70;;;15.00;99.90;;;14.77;91.08;102072.78;4184110;28;20106;-74
2021/07/09 00:26:40;;;;;;;5.15;2.47;;;15.00;99.90;;;14.63;91.96;102070.66;4183917;28;20032;-73
2021/07/09 00:28:41;;;;;;;6.07;2.55;;;15.00;99.90;;;14.62;91.98;102063.69;4167394;28;20021;-74
2021/07/09 00:30:42;;;;;;;2.10;1.90;;;15.00;99.90;;;14.70;92.15;102069.06;4201559;28;20035;-74
2021/07/09 00:32:43;;;;;;;3.33;1.90;;;14.90;99.90;;;14.66;92.37;102073.03;4201618;28;20552;-74
2021/07/09 00:34:44;;;;;;;4.07;2.10;;;14.90;99.90;;;14.63;92.72;102060.03;4167290;28;20041;-74
2021/07/09 00:36:45;;;;;;;5.07;2.17;;;14.90;99.90;;;14.70;92.02;102056.63;4183456;28;20036;-74
2021/07/09 00:38:46;;;;;;;4.22;2.38;;;14.90;99.90;;;14.53;93.18;102060.09;4201276;28;20083;-74
2021/07/09 00:40:47;;;;;;;4.05;2.47;;;14.90;99.90;;;14.56;92.96;102049.19;4183843;28;20039;-74
2021/07/09 00:42:47;;;;;;;3.22;2.22;;;14.80;99.90;;;14.56;93.28;102065.13;4183144;28;20033;-74
2021/07/09 00:44:48;;;;;;;4.07;2.40;;;14.80;99.90;;;14.45;93.66;102046.75;4183749;28;20052;-74
2021/07/09 00:46:51;;;;;;;4.85;1.90;;;14.80;99.90;;;14.48;93.47;102042.94;4183594;28;20112;-74
2021/07/09 00:48:51;;;;;;;3.63;2.30;;;14.70;99.90;;;14.44;93.81;102052.19;4201581;28;20233;-74
2021/07/09 00:50:52;;;;;;;5.32;2.35;;;14.70;99.90;;;14.45;94.07;102043.25;4201314;28;20050;-74
2021/07/09 00:52:53;;;;;;;2.55;1.63;;;14.70;99.90;;;14.49;93.77;102047.25;4183622;28;20124;-74
2021/07/09 00:54:54;;;;;;;3.00;2.05;;;14.70;99.90;;;14.56;93.43;102041.22;4167042;28;20056;-74
2021/07/09 00:56:56;;;;;;;6.15;2.30;;;14.70;99.90;;;14.58;93.38;102038.41;4183810;28;20396;-74
2021/07/09 00:58:58;;;;;;;3.55;2.13;;;14.80;99.90;;;14.64;93.27;102043.94;4183773;28;20538;-74
2021/07/09 01:00:59;;;;;;;4.00;2.75;;;14.80;99.90;;;14.73;92.43;102029.75;4183650;28;20032;-74
2021/07/09 01:03:00;;;;;;;4.10;2.55;;;14.90;99.90;;;14.65;92.68;102028.84;4183565;28;20053;-74
2021/07/09 01:05:04;;;;;;;3.38;2.78;;;14.90;99.90;;;14.64;93.25;102027.16;4183718;28;20025;-74
2021/07/09 01:07:05;;;;;;;;;;;14.90;99.90;;;14.51;93.73;102027.56;4183919;28;20032;-74
2021/07/09 01:09:06;;;;;;;4.55;2.53;;;14.80;99.90;;;14.60;93.17;102031.97;4167095;28;19909;-74
2021/07/09 01:11:09;;;;;;;4.55;2.33;;;14.80;99.90;;;14.67;93.05;102035.69;4166858;28;20758;-74
2021/07/09 01:13:11;;;;;;;4.70;3.05;;;14.80;99.90;;;14.70;92.78;102039.84;4183758;28;20404;-74
2021/07/09 01:15:16;;;;;;;6.43;2.75;;;14.90;99.90;;;14.56;92.81;102035.91;4201339;28;20032;-73
2021/07/09 01:17:17;;;;;;;6.50;3.03;;;14.80;99.90;;;14.51;93.46;102037.34;4183621;28;20040;-74
2021/07/09 01:19:23;;;;;;;3.92;2.50;;;14.80;99.90;;;14.39;94.57;102034.88;4183501;28;20021;-73
2021/07/09 01:21:24;;;;;;;5.00;3.38;;;14.80;99.90;;;14.42;94.58;102027.63;4183686;28;20039;-74
2021/07/09 01:23:28;;;;;;;2.38;1.88;;;14.70;99.90;;;14.49;94.91;102031.31;4201244;28;20476;-74
2021/07/09 01:25:29;;;;;;;3.45;2.70;;;14.70;99.90;;;14.51;94.57;102032.03;4201055;28;20029;-74
2021/07/09 01:27:30;;;;;;;5.15;2.13;;;14.70;99.90;;;14.42;94.36;102014.34;4183236;28;20025;-74
2021/07/09 01:29:31;;;;;;;4.63;2.22;;;14.70;99.90;;;14.24;95.50;102020.44;4201239;28;20028;-74
2021/07/09 01:31:34;;;;;;;3.88;2.13;;;14.60;99.90;;;14.26;95.52;102031.72;4201034;28;20059;-74
2021/07/09 01:33:35;;;;;;;3.92;2.28;;;14.60;99.90;;;14.30;95.51;102022.50;4166760;28;20033;-74
2021/07/09 01:35:36;;;;;;;4.30;2.50;;;14.60;99.90;;;14.33;95.09;102016.91;4166612;28;20036;-74
2021/07/09 01:37:38;;;;;;;5.13;3.03;;;14.60;99.90;;;14.31;95.42;102023.31;4183132;28;20044;-74
2021/07/09 01:39:40;;;;;;;3.70;2.25;;;14.60;99.90;;;14.29;95.90;102012.00;4183024;28;20056;-74
2021/07/09 01:41:41;;;;;;;3.40;2.70;;;14.60;99.90;;;14.34;95.90;102015.91;4183178;28;20058;-74
2021/07/09 01:43:42;;;;;;;3.08;2.30;;;14.60;99.90;;;14.39;95.91;102016.28;4166568;28;20029;-74
2021/07/09 01:45:43;;;;;;;3.88;2.53;;;14.60;99.90;;;14.36;95.52;102018.44;4183271;28;20060;-74
2021/07/09 01:47:44;;;;;;;7.05;2.65;;;14.60;99.90;;;14.35;95.38;102012.28;4201089;28;20522;-74
2021/07/09 01:49:55;;;;;;;4.75;2.72;;;14.60;99.90;;;14.31;95.83;102016.19;4200946;28;20033;-74
2021/07/09 01:51:57;;;;;;;5.72;3.20;;;14.60;99.90;;;14.23;96.56;102015.25;4182980;28;20029;-74
2021/07/09 01:53:58;;;;;;;4.35;2.67;;;14.60;99.90;;;14.24;96.42;102004.50;4167877;28;20583;-74
2021/07/09 01:56:00;;;;;;;4.63;2.10;;;14.60;99.90;;;14.26;96.61;102007.84;4186371;28;20021;-74
2021/07/09 01:58:01;;;;;;;3.35;2.35;;;14.60;99.90;;;14.34;96.70;102009.78;4169583;28;20127;-74
2021/07/09 02:00:14;;;;;;;4.35;2.55;;;14.60;99.90;;;14.25;96.87;102002.66;4169423;28;20033;-74
2021/07/09 02:02:15;;;;;;;5.97;3.17;;;14.60;99.90;;;14.26;96.95;102012.31;4187226;28;20107;-74
2021/07/09 02:04:16;;;;;;;4.18;2.42;;;14.60;99.90;;;14.29;97.33;102009.34;4186141;28;20798;-74
2021/07/09 02:06:17;;;;;;;3.83;3.00;;;14.60;99.90;;;14.37;97.49;102007.66;4185795;28;20484;-74
2021/07/09 02:08:18;;;;;;;5.45;2.75;;;14.70;99.90;;;14.26;97.77;101997.22;4169604;28;20025;-74
2021/07/09 02:10:20;;;;;;;5.22;3.50;;;14.70;99.90;;;14.37;97.32;102002.34;4203859;28;20025;-74
2021/07/09 02:12:25;;;;;;;5.68;2.85;;;14.80;99.90;;;14.46;97.11;102007.72;4203834;28;20037;-74
2021/07/09 02:14:26;;;;;;;3.85;3.20;;;14.80;99.90;;;14.44;97.29;102001.75;4203660;28;20078;-74
2021/07/09 02:16:27;;;;;;;4.70;3.20;;;14.80;99.90;;;14.51;97.07;102003.66;4186128;28;20033;-74
2021/07/09 02:18:27;;;;;;;7.45;3.95;;;14.80;99.90;;;14.51;97.24;102000.16;4186028;28;20033;-74
2021/07/09 02:20:29;;;;;;;6.13;3.17;;;14.90;99.90;;;14.55;97.24;102007.66;4203674;28;20037;-74
2021/07/09 02:22:30;;;;;;;4.47;3.78;;;14.90;99.90;;;14.68;95.99;102000.19;4203294;28;20054;-74
2021/07/09 02:24:32;;;;;;;5.00;3.35;;;15.00;99.90;;;14.76;95.48;102002.91;4185855;28;20158;-74
2021/07/09 02:26:33;;;;;;;6.05;3.78;;;15.00;99.90;;;14.61;96.23;102000.91;4169338;28;20028;-74
2021/07/09 02:28:34;;;;;;;3.75;3.28;;;15.10;99.90;;;14.60;96.40;102001.91;4185959;28;20025;-73
2021/07/09 02:30:36;;;;;;;5.55;3.78;;;15.00;99.90;;;14.70;96.57;102006.16;4203533;28;20036;-74
2021/07/09 02:32:40;;;;;;;4.90;2.47;;;15.10;99.90;;;14.73;96.51;102002.34;4169242;28;20030;-74
2021/07/09 02:34:42;;;;;;;5.57;2.55;;;15.10;99.90;;;14.83;95.95;102003.97;4203544;28;20020;-74
2021/07/09 02:36:43;;;;;;;4.78;2.30;;;15.20;99.90;;;14.90;95.80;102006.84;4203282;28;20612;-74
2021/07/09 02:38:44;;;;;;;3.88;2.83;;;15.20;99.90;;;14.84;95.97;101999.50;4203163;28;20074;-74
2021/07/09 02:40:45;;;;;;;4.53;2.85;;;15.20;99.90;;;14.93;95.91;102001.22;4203524;28;20035;-74
2021/07/09 02:42:51;;;;;;;5.60;3.00;;;15.20;99.90;;;14.94;95.92;102000.22;4185629;28;20020;-74
2021/07/09 02:44:52;;;;;;;6.78;3.00;;;15.20;99.90;;;14.85;96.12;101990.50;4203452;28;20024;-74
2021/07/09 02:46:54;;;;;;;7.25;2.65;;;15.20;99.90;;;14.80;96.57;101992.81;4203294;28;20070;-74
2021/07/09 02:48:54;;;;;;;3.25;2.83;;;15.30;99.90;;;14.89;96.35;102002.50;4185452;28;20017;-74
2021/07/09 02:50:55;;;;;;;4.68;3.15;;;15.30;99.90;;;14.82;96.52;101999.63;4185221;28;20063;-74
2021/07/09 02:52:56;;;;;;;6.32;3.50;;;15.30;99.90;;;14.84;96.33;101989.66;4203304;28;20380;-74
2021/07/09 02:54:57;;;;;;;5.35;2.85;;;15.30;99.90;;;14.91;96.09;101996.06;4203123;28;20047;-74
2021/07/09 02:56:58;;;;;;;3.90;2.78;;;15.30;99.90;;;14.92;96.23;102002.22;4203300;28;20036;-74
2021/07/09 02:58:59;;;;;;;4.70;2.97;;;15.30;99.90;;;14.91;96.31;101990.75;4203460;28;20446;-74
2021/07/09 03:01:00;;;;;;;4.45;2.55;;;15.30;99.90;;;14.94;96.27;101985.13;4185327;28;20093;-74
2021/07/09 03:03:01;;;;;;;4.95;2.90;;;15.30;99.90;;;14.93;96.59;101987.94;4203080;28;20025;-74
2021/07/09 03:05:03;;;;;;;5.15;3.10;;;15.40;99.90;;;14.98;96.59;101984.81;4184853;28;20021;-74
2021/07/09 03:07:04;;;;;;;3.58;3.13;;;15.30;99.90;;;14.95;96.43;101985.97;4202612;28;20029;-74
2021/07/09 03:09:10;;;;;;;4.32;2.83;;;15.40;99.90;;;14.99;96.47;101991.81;4203040;28;20033;-74
2021/07/09 03:11:11;;;;;;;5.13;2.97;;;15.40;99.90;;;15.09;95.74;101989.88;4185132;28;20397;-74
2021/07/09 03:13:12;;;;;;;5.90;3.55;;;15.40;99.90;;;15.00;96.05;101991.63;4185295;28;20036;-74
2021/07/09 03:15:14;;;;;;;5.97;3.17;;;15.40;99.90;;;15.09;96.02;101992.53;4185118;28;20060;-73
2021/07/09 03:17:15;;;;;;;5.68;3.58;;;15.40;99.90;;;15.16;95.49;101983.78;4185170;28;20033;-74
2021/07/09 03:19:16;;;;;;;2.85;2.45;;;15.50;99.90;;;15.23;95.36;101981.34;4185024;28;20036;-74
2021/07/09 03:21:17;;;;;;;5.30;3.30;;;15.50;99.90;;;15.30;93.77;101974.41;4184782;28;20025;-74
2021/07/09 03:23:18;;;;;;;3.45;2.55;;;15.50;99.90;;;15.21;94.51;101976.19;4202798;28;20475;-74
2021/07/09 03:25:19;;;;;;;4.75;3.05;;;15.50;99.90;;;15.18;95.03;101976.50;4188057;28;20033;-74
2021/07/09 03:27:20;;;;;;;3.70;3.03;;;15.50;99.90;;;15.16;95.61;101977.63;4184724;28;20032;-74
2021/07/09 03:29:20;;;;;;;4.68;2.70;;;15.50;99.90;;;15.16;95.42;101982.97;4202730;28;20031;-74
2021/07/09 03:31:21;;;;;;;5.68;3.10;;;15.60;99.90;;;15.06;95.64;101976.88;4168339;28;20456;-74
2021/07/09 03:33:22;;;;;;;10.50;3.22;;;15.50;99.90;;;14.90;96.17;101982.94;4201406;28;20032;-74
2021/07/09 03:35:24;;;;;;;5.70;3.15;;;15.50;99.90;;;14.88;96.72;101979.56;4184625;28;20083;-74
2021/07/09 03:37:25;;;;;;;5.15;2.85;;;15.40;99.90;;;14.85;96.67;101971.91;4184619;28;20033;-74
2021/07/09 03:39:25;;;;;;;3.67;2.40;;;15.40;99.90;;;14.97;96.56;101983.97;4184662;28;20045;-74
2021/07/09 03:41:26;;;;;;;4.30;3.53;;;15.40;99.90;;;15.01;96.20;101976.53;4194581;28;20103;-74
2021/07/09 03:43:27;;;;;;;7.65;2.95;;;15.40;99.90;;;14.94;96.26;101978.97;4184769;28;20033;-74
2021/07/09 03:45:28;;;;;;;4.07;2.92;;;15.40;99.90;;;14.88;96.95;101976.91;4202440;28;20507;-74
2021/07/09 03:47:29;;;;;;;6.05;3.22;;;15.40;99.90;;;14.84;96.68;101963.09;4184699;28;20024;-74
2021/07/09 03:49:30;;;;;;;7.68;4.18;;;15.40;99.90;;;14.96;96.84;101979.66;4202403;28;20090;-74
2021/07/09 03:51:31;;;;;;;3.05;2.70;;;15.40;99.90;;;15.01;96.44;101976.53;4184247;28;20029;-74
2021/07/09 03:53:33;;;;;;;4.32;2.90;;;15.40;99.90;;;15.04;96.30;101974.41;4202322;28;21522;-74
2021/07/09 03:55:34;;;;;;;3.58;2.65;;;15.40;99.90;;;15.07;95.94;101981.22;4202284;28;20061;-74
2021/07/09 03:57:35;;;;;;;4.97;2.83;;;15.40;99.90;;;15.18;95.36;101979.16;4184388;28;20088;-74
2021/07/09 03:59:36;;;;;;;8.63;3.13;;;15.50;99.90;;;15.14;95.17;101979.63;4184333;28;20036;-74
2021/07/09 04:01:37;;;;;;;4.57;2.88;;;15.50;99.90;;;15.06;96.44;101974.22;4183825;28;20052;-74
2021/07/09 04:03:38;;;;;;;3.92;2.38;;;15.50;99.90;;;15.07;96.56;101984.72;4184341;28;20021;-74
2021/07/09 04:05:39;;;;;;;4.97;3.17;;;15.40;99.90;;;15.06;96.68;101982.22;4201726;28;20028;-74
2021/07/09 04:07:41;;;;;;;5.07;2.92;;;15.40;99.90;;;15.12;96.00;101984.25;4184122;28;20114;-74
2021/07/09 04:09:41;;;;;;;4.22;2.83;;;15.50;99.90;;;15.05;96.25;101980.56;4184106;28;20029;-74
2021/07/09 04:11:42;;;;;;;5.15;3.28;;;15.40;99.90;;;15.05;96.45;101973.44;4202046;28;20036;-74
2021/07/09 04:13:43;;;;;;;5.60;3.05;;;15.40;99.90;;;14.98;97.15;101983.00;4184181;28;20043;-74
2021/07/09 04:15:44;;;;;;;8.48;3.53;;;15.40;99.90;;;14.99;96.98;101975.84;4184070;28;20083;-74
2021/07/09 04:17:45;;;;;;;5.18;3.65;;;15.40;99.90;;;15.08;96.63;101986.41;4200870;28;20028;-74
2021/07/09 04:19:49;;;;;;;8.15;3.70;;;15.40;99.90;;;15.12;96.49;101977.09;4184097;28;20028;-74
2021/07/09 04:21:50;;;;;;;6.15;3.25;;;15.50;99.90;;;15.14;96.26;101975.13;4167406;28;20036;-74
2021/07/09 04:23:51;;;;;;;7.80;3.45;;;15.50;99.90;;;15.20;95.67;101981.66;4184045;28;20025;-74
2021/07/09 04:25:51;;;;;;;7.47;3.50;;;15.50;99.90;;;15.13;96.12;101991.25;4183853;28;20534;-74
2021/07/09 04:27:52;;;;;;;5.18;3.40;;;15.50;99.90;;;14.99;96.33;101986.50;4184006;28;20032;-74
2021/07/09 04:29:54;;;;;;;7.85;3.70;;;15.40;99.90;;;14.97;96.07;101989.28;4200419;28;20024;-74
2021/07/09 04:31:55;;;;;;;5.93;3.53;;;15.50;99.90;;;15.01;96.41;101990.66;4183969;28;20029;-74
2021/07/09 04:33:55;;;;;;;4.90;3.45;;;15.40;99.90;;;15.05;96.75;101994.69;4183803;28;20044;-74
2021/07/09 04:35:57;;;;;;;5.93;3.53;;;15.40;99.90;;;15.09;96.26;101995.19;4201506;28;20020;-74
2021/07/09 04:37:57;;;;;;;4.43;3.15;;;15.40;99.90;;;15.06;96.41;101993.69;4183094;28;20120;-74
2021/07/09 04:39:59;;;;;;;7.18;3.97;;;15.40;99.90;;;14.95;97.03;101991.28;4167332;28;20037;-74
2021/07/09 04:42:00;;;;;;;5.57;3.35;;;15.40;99.90;;;14.90;97.15;101993.56;4168453;28;20029;-74
2021/07/09 04:44:01;;;;;;;6.15;3.35;;;15.40;99.90;;;14.96;97.10;101987.63;4167389;28;20021;-74
2021/07/09 04:46:02;;;;;;;4.28;3.20;;;15.40;99.90;;;14.95;97.04;101992.09;4167374;28;20068;-74
2021/07/09 04:48:03;;;;;;;4.45;2.83;;;15.40;99.90;;;14.96;96.74;101988.44;4167341;28;20021;-74
2021/07/09 04:50:05;;;;;;;4.63;2.80;;;15.40;99.90;;;15.03;97.06;101991.31;4167120;28;20028;-74
2021/07/09 04:52:06;;;;;;;5.40;3.35;;;15.40;99.90;;;15.12;96.17;101989.56;4167119;28;20018;-74
2021/07/09 04:54:07;;;;;;;4.93;3.40;;;15.40;99.90;;;15.09;96.19;101995.19;4168449;28;20025;-74
2021/07/09 04:56:08;;;;;;;6.32;3.65;;;15.50;99.90;;;15.07;97.29;101989.19;4168432;28;20082;-74
2021/07/09 04:58:09;;;;;;;3.55;2.83;;;15.50;99.90;;;14.90;97.08;101967.81;4168298;28;20041;-74
2021/07/09 05:00:11;;;;;;;7.13;3.08;;;15.50;99.90;;;15.11;96.98;101990.56;4167105;28;20025;-74
2021/07/09 05:02:11;;;;;;;4.47;3.03;;;15.50;99.90;;;15.13;96.75;101989.41;4167197;28;20097;-74
2021/07/09 05:04:12;;;;;;;5.25;2.70;;;15.50;99.90;;;15.24;96.69;101991.81;4167151;28;20021;-73
2021/07/09 05:06:13;;;;;;;10.93;4.15;;;15.60;99.90;;;15.31;96.02;101995.53;4168089;28;20519;-74
2021/07/09 05:08:14;;;;;;;5.85;2.75;;;15.60;99.90;;;15.34;95.81;101994.38;4168471;28;20455;-74
2021/07/09 05:10:15;;;;;;;5.82;3.13;;;15.70;99.90;;;15.39;95.30;101994.72;4168319;28;20022;-74
2021/07/09 05:12:16;;;;;;;4.30;2.60;;;15.70;99.90;;;15.25;95.97;101993.50;4168338;28;20033;-74
2021/07/09 05:14:17;;;;;;;3.85;2.67;;;15.70;99.90;;;15.25;96.49;101992.66;4183413;28;20025;-74
2021/07/09 05:16:19;;;;;;;6.05;3.00;;;15.70;99.90;;;15.24;96.91;101993.63;4167176;28;20025;-74
2021/07/09 05:18:20;;;;;;;4.28;2.50;;;15.70;99.90;;;15.29;96.99;101994.84;4150711;28;20057;-74
2021/07/09 05:20:20;;;;;;;7.30;3.05;;;15.70;99.90;;;15.25;97.23;101993.50;4167013;28;20029;-74
2021/07/09 05:22:23;;;;;;;7.63;4.05;;;15.80;99.90;;;15.23;97.05;101994.66;4167891;28;20060;-74
2021/07/09 05:24:26;;;;;;;7.90;4.40;;;15.80;99.90;;;15.33;96.45;102001.50;4150551;28;20021;-74
2021/07/09 05:26:27;;;;;;;6.53;3.38;;;15.80;99.90;;;15.37;96.29;101997.56;4168249;28;20485;-74
2021/07/09 05:28:28;;;;;;;5.00;3.05;;;15.80;99.90;;;15.43;96.02;102002.25;4167671;28;20072;-74
2021/07/09 05:30:29;;;;;;;7.25;3.92;;;15.80;99.90;;;15.36;96.05;101992.38;4171467;28;20033;-74
2021/07/09 05:32:29;;;;;;;3.60;2.85;;;15.90;99.90;;;15.41;96.18;101996.25;4171446;28;20167;-74
2021/07/09 05:34:31;;;;;;;5.90;2.60;;;15.90;99.90;;;15.47;96.06;102000.16;4170120;28;20025;-74
2021/07/09 05:36:32;;;;;;;10.48;3.53;;;16.00;99.90;;;15.59;95.33;102006.03;4169726;28;20033;-74
2021/07/09 05:38:33;;;;;;;4.07;2.72;;;16.10;99.90;;;15.58;95.24;102004.34;4169959;28;20048;-74
2021/07/09 05:40:34;;;;;;;4.43;2.92;;;16.10;99.90;;;15.54;95.24;101992.34;4169782;28;20076;-74
2021/07/09 05:42:35;;;;;;;5.78;2.83;;;16.10;99.90;;;15.64;95.10;102003.72;4170095;28;20535;-74
2021/07/09 05:44:36;;;;;;;4.78;3.13;;;16.10;99.90;;;15.70;95.04;102000.44;4170039;28;20104;-74
2021/07/09 05:46:38;;;;;;;4.43;2.83;;;16.20;99.90;;;15.60;95.03;101995.22;4186281;28;20468;-74
2021/07/09 05:48:39;;;;;;;6.40;2.88;;;16.20;99.90;;;15.64;95.35;101998.41;4169896;28;20400;-74
2021/07/09 05:50:41;;;;;;;3.70;2.75;;;16.20;99.90;;;15.67;95.24;101992.78;4170827;28;20025;-74
2021/07/09 05:52:42;;;;;;;5.32;3.33;;;16.30;99.90;;;15.67;94.63;101998.09;4169788;28;20093;-74
2021/07/09 05:54:43;;;;;;;4.75;3.13;;;16.30;99.90;;;15.76;94.34;101997.97;4169637;28;20032;-74
2021/07/09 05:56:44;;;;;;;4.90;2.95;;;16.40;99.90;;;15.87;93.58;102005.66;4170898;28;20037;-74
2021/07/09 05:58:45;;;;;;;9.02;3.53;;;16.40;99.90;;;15.91;92.50;101998.22;4169820;28;20029;-74
2021/07/09 06:00:46;;;;;;;6.75;3.20;;;16.50;99.90;;;15.83;93.21;102006.97;4169696;28;20042;-74
2021/07/09 06:02:47;;;;;;;3.85;2.88;;;16.40;99.90;;;15.81;93.78;102000.16;4169671;28;20477;-74
2021/07/09 06:04:48;;;;;;;6.93;3.30;;;16.40;99.90;;;15.86;93.24;102006.66;4169520;28;20033;-74
2021/07/09 06:06:49;;;;;;;7.00;3.53;;;16.40;99.90;;;15.80;92.79;102001.16;4170613;28;20036;-74
2021/07/09 06:08:50;;;;;;;5.38;3.58;;;16.40;99.90;;;15.81;92.92;101998.31;4169555;28;20025;-74
2021/07/09 06:10:51;;;;;;;8.57;3.70;;;16.40;99.90;;;15.80;93.32;101998.50;4170700;28;20061;-74
2021/07/09 06:12:51;;;;;;;7.70;3.90;;;16.50;99.90;;;15.97;93.34;102011.72;4170625;28;20080;-74
2021/07/09 06:14:53;;;;;;;7.80;4.15;;;16.60;99.90;;;16.06;93.06;102012.56;4170676;28;20076;-74
2021/07/09 06:16:54;;;;;;;8.20;3.53;;;16.60;99.90;;;16.17;92.13;102012.28;4170641;28;20248;-74
2021/07/09 06:18:55;;;;;;;7.55;3.15;;;16.70;99.90;;;16.21;91.93;102010.97;4170463;28;20037;-74
2021/07/09 06:20:56;;;;;;;6.95;3.20;;;16.80;99.90;;;16.13;92.37;102010.91;4168831;28;20060;-74
2021/07/09 06:22:57;;;;;;;10.13;4.00;;;16.90;99.90;;;16.09;91.12;102009.59;4153000;28;20026;-74
2021/07/09 06:24:58;;;;;;;5.82;3.58;;;16.90;99.90;;;16.21;90.96;102018.13;4169247;28;20528;-74
2021/07/09 06:26:59;;;;;;;6.97;3.60;;;16.90;99.90;;;16.29;90.44;102005.66;4185674;28;20052;-74
2021/07/09 06:28:59;;;;;;;5.20;3.42;;;17.00;99.90;;;16.41;89.75;102007.03;4185604;28;20029;-74
2021/07/09 06:31:01;;;;;;;7.80;3.83;;;17.10;99.90;;;16.36;89.63;102001.34;4152855;28;20049;-74
2021/07/09 06:33:02;;;;;;;7.60;4.45;;;17.10;99.90;;;16.16;89.11;102013.25;4170383;28;20040;-74
2021/07/09 06:35:09;;;;;;;4.63;3.83;;;17.20;99.90;;;16.23;90.05;102006.31;4169226;28;20487;-74
2021/07/09 06:37:10;;;;;;;5.80;4.05;;;17.20;99.90;;;16.42;89.01;102010.53;4168808;28;20064;-74
2021/07/09 06:39:11;;;;;;;8.68;4.20;;;17.30;99.90;;;16.22;88.53;102001.97;4170924;28;20536;-74
2021/07/09 06:41:13;;;;;;;4.38;3.88;;;17.30;99.90;;;16.42;88.25;102010.53;4176093;28;20147;-74
2021/07/09 06:43:14;;;;;;;4.80;4.00;;;17.30;99.90;;;16.54;87.87;102010.09;4169032;28;20099;-74
2021/07/09 06:45:15;;;;;;;8.43;4.45;;;17.40;99.90;;;16.61;86.73;102004.09;4169023;28;20021;-74
2021/07/09 06:47:16;;;;;;;8.65;4.47;;;17.50;99.90;;;16.52;88.10;102001.38;4169105;28;20025;-74
2021/07/09 06:49:16;;;;;;;4.95;4.28;;;17.50;99.90;;;16.40;88.47;102000.00;4170300;28;20029;-74
2021/07/09 06:51:17;;;;;;;7.55;4.93;;;17.50;99.90;;;16.59;87.55;102002.44;4169898;28;20100;-74
2021/07/09 06:53:18;;;;;;;7.03;4.43;;;17.60;99.90;;;16.08;90.56;102009.75;4152354;28;20034;-74
2021/07/09 06:55:19;;;;;;;7.65;4.75;;;17.40;99.90;;;16.24;90.14;102007.16;4170180;28;20044;-74
2021/07/09 06:57:20;;;;;;;6.72;4.65;;;17.50;99.90;;;16.45;88.47;101991.56;4152360;28;20026;-74
2021/07/09 06:59:21;;;;;;;7.80;5.20;;;17.50;99.90;;;16.73;86.85;101992.94;4169947;28;20519;-74
2021/07/09 07:01:22;;;;;;;8.30;4.63;;;17.60;99.90;;;16.49;87.63;102000.84;4168692;28;20029;-74
2021/07/09 07:03:23;;;;;;;6.15;4.47;;;17.70;99.90;;;16.55;87.30;101995.75;4168996;28;20021;-74
2021/07/09 07:05:24;;;;;;;6.88;4.07;;;17.70;99.90;;;16.83;83.93;101998.94;4168904;28;20028;-74
2021/07/09 07:07:25;;;;;;;5.88;3.65;;;17.80;99.90;;;16.74;84.87;101989.28;4152002;28;20033;-74
2021/07/09 07:09:26;;;;;;;6.20;3.90;;;17.80;99.90;;;16.75;85.65;102001.63;4169926;28;20029;-74
2021/07/09 07:11:27;;;;;;;5.47;3.35;;;17.80;99.90;;;16.88;84.52;101985.09;4152321;28;20129;-74
2021/07/09 07:13:28;;;;;;;5.38;3.40;;;17.90;99.90;;;16.95;83.17;101991.44;4169941;28;20041;-74
2021/07/09 07:15:29;;;;;;;5.55;3.25;;;18.00;99.90;;;16.62;84.59;102003.91;4169902;28;20106;-74
2021/07/09 07:17:30;;;;;;;7.43;3.55;;;18.00;99.90;;;17.17;82.56;101998.78;4168613;28;20032;-74
2021/07/09 07:19:31;;;;;;;4.53;3.67;;;18.10;99.90;;;17.48;80.94;101993.53;4168597;28;20603;-74
2021/07/09 07:21:32;;;;;;;4.03;2.47;;;18.30;99.90;;;17.59;79.40;102004.72;4168212;28;20025;-74
2021/07/09 07:23:33;;;;;;;6.25;2.53;;;18.60;99.90;;;17.81;78.33;101995.13;4169634;28;20052;-74
2021/07/09 07:25:34;;;;;;;3.42;2.25;;;18.70;99.90;;;17.89;76.53;101991.63;4168370;28;20021;-74
2021/07/09 07:27:35;;;;;;;4.15;2.00;;;18.80;99.90;;;17.73;77.53;101992.50;4169787;28;20032;-74
2021/07/09 07:29:36;;;;;;;3.90;2.00;;;18.80;99.90;;;17.62;76.41;101996.34;4184922;28;20021;-74
2021/07/09 07:31:37;;;;;;;3.78;2.15;;;18.80;99.90;;;17.61;75.39;102009.88;4169527;28;20030;-74
2021/07/09 07:33:40;;;;;;;3.83;1.95;;;18.80;99.90;;;17.60;75.41;101995.72;4168447;28;20033;-74
2021/07/09 07:35:40;;;;;;;3.75;2.38;;;18.80;99.90;;;17.54;76.66;102001.72;4168116;28;20034;-74
2021/07/09 07:37:41;;;;;;;6.80;2.40;;;18.80;99.90;;;17.58;76.95;102004.91;4169584;28;20027;-74
2021/07/09 07:39:42;;;;;;;6.60;2.83;;;18.80;99.90;;;17.64;77.12;101997.03;4180732;28;20056;-74
2021/07/09 07:41:43;;;;;;;4.03;2.88;;;18.70;99.90;;;17.70;77.42;102006.19;4184589;28;20025;-74
2021/07/09 07:43:45;;;;;;;5.35;3.60;;;18.70;99.90;;;17.63;77.64;102005.19;4151718;28;20030;-74
2021/07/09 07:45:46;;;;;;;6.22;3.03;;;18.60;99.90;;;17.62;78.83;101993.69;4168237;28;20057;-74
2021/07/09 07:47:47;;;;;;;3.92;2.60;;;18.60;99.90;;;17.76;78.65;101996.66;4169393;28;20037;-74
2021/07/09 07:49:48;;;;;;;4.30;3.15;;;18.70;99.90;;;17.90;77.71;102006.63;4168048;28;20021;-74
2021/07/09 07:51:52;;;;;;;4.47;2.70;;;18.70;99.90;;;18.02;76.91;102002.56;4167494;28;20029;-74
2021/07/09 07:53:54;;;;;;;4.25;2.85;;;18.90;99.90;;;18.05;75.55;102002.22;4169181;28;20029;-74
2021/07/09 07:55:55;;;;;;;4.10;2.50;;;19.10;99.90;;;18.05;74.96;102004.88;4169280;28;20079;-74
2021/07/09 07:57:56;;;;;;;4.57;2.55;;;19.10;99.90;;;18.15;74.82;102000.16;4169250;28;20017;-74
2021/07/09 07:59:57;;;;;;;4.53;2.40;;;19.20;99.90;;;18.20;75.00;101995.97;4167899;28;20085;-74
2021/07/09 08:01:59;;;;;;;2.53;2.13;;;19.30;99.90;;;18.53;73.01;102003.81;4151554;28;20038;-74
2021/07/09 08:04:00;;;;;;;3.30;2.10;;;19.50;99.90;;;18.47;72.44;101991.13;4169073;28;20063;-74
2021/07/09 08:06:01;;;;;;;3.50;2.20;;;19.60;99.90;;;18.76;70.50;101994.78;4168783;28;20030;-74
2021/07/09 08:08:05;;;;;;;5.95;2.20;;;19.80;99.90;;;18.96;70.37;101997.81;4167671;28;20027;-74
2021/07/09 08:10:07;;;;;;;3.90;2.15;;;20.00;99.90;;;18.93;70.08;101997.34;4169013;28;20048;-74
2021/07/09 08:12:08;;;;;;;2.50;2.20;;;20.20;99.90;;;18.16;74.01;101999.13;4167631;28;20026;-74
2021/07/09 08:14:09;;;;;;;4.28;2.60;;;20.00;99.90;;;17.98;74.34;102002.06;4167640;28;20029;-74
2021/07/09 08:16:11;;;;;;;5.30;2.90;;;19.80;99.90;;;18.29;71.89;102004.75;4167563;28;20072;-73
2021/07/09 08:18:12;;;;;;;5.90;2.45;;;19.70;99.90;;;18.27;74.03;101995.25;4167736;28;20072;-74
2021/07/09 08:20:13;;;;;;;6.10;2.60;;;19.70;99.90;;;18.58;72.29;102004.09;4167665;28;20025;-74
2021/07/09 08:22:14;;;;;;;3.17;2.22;;;19.80;99.90;;;18.39;74.17;101993.84;4167368;28;20409;-74
2021/07/09 08:24:18;;;;;;;3.45;2.42;;;19.80;99.90;;;18.35;73.00;102001.38;4168664;28;20025;-74
2021/07/09 08:26:18;;;;;;;2.67;2.00;;;19.70;99.90;;;18.58;71.27;102002.25;4167720;28;20068;-74